Time;durP1;ratioP1;P1;durP2;ratioP2;P2;SDS_P1;SDS_P2;PMS_P1;PMS_P2;Temp;Humidity;BMP_temperature;BMP_pressure;BME280_temperature;BME280_humidity;BME280_pressure;Samples;Min_cycle;Max_cycle;Signal;HPM_P1;HPM_P2
2021/07/25 00:01:34;;;;;;;192.93;179.50;;;;;;;;;;4993417;28;20485;-72
2021/07/25 00:04:01;;;;;;;208.63;194.93;;;;;;;;;;4993337;28;20469;-72
2021/07/25 00:06:28;;;;;;;229.60;215.20;;;;;;;;;;4993329;28;20462;-72
2021/07/25 00:08:56;;;;;;;221.30;207.20;;;;;;;;;;4993693;28;20456;-71
2021/07/25 00:11:23;;;;;;;228.37;213.97;;;;;;;;;;4993307;28;20465;-72
2021/07/25 00:13:54;;;;;;;233.60;218.93;;;;;;;;;;4993574;28;20456;-71
2021/07/25 00:16:21;;;;;;;216.57;202.57;;;;;;;;;;4993381;28;20494;-71
2021/07/25 00:18:48;;;;;;;229.80;215.30;;;;;;;;;;4993275;28;20442;-72
2021/07/25 00:21:16;;;;;;;236.43;222.00;;;;;;;;;;4993108;28;20457;-71
2021/07/25 00:23:46;;;;;;;221.77;207.67;;;;;;;;;;4993265;28;20942;-72
2021/07/25 00:26:17;;;;;;;218.43;204.67;;;;;;;;;;4993328;28;20466;-71
2021/07/25 00:28:44;;;;;;;238.37;223.67;;;;;;;;;;4992704;28;20450;-72
2021/07/25 00:31:11;;;;;;;230.90;216.40;;;;;;;;;;4993444;28;20454;-72
2021/07/25 00:33:38;;;;;;;228.23;214.13;;;;;;;;;;4993269;28;20941;-72
2021/07/25 00:36:06;;;;;;;238.50;223.40;;;;;;;;;;4993266;28;20494;-72
2021/07/25 00:38:34;;;;;;;231.47;216.70;;;;;;;;;;4993197;28;20477;-72
2021/07/25 00:41:03;;;;;;;239.60;224.80;;;;;;;;;;4993283;28;20762;-71
2021/07/25 00:43:32;;;;;;;245.73;230.53;;;;;;;;;;4993492;28;20456;-72
2021/07/25 00:45:59;;;;;;;239.47;224.67;;;;;;;;;;4993195;28;20469;-71
2021/07/25 00:48:27;;;;;;;244.27;229.27;;;;;;;;;;4993060;28;20454;-71
2021/07/25 00:50:55;;;;;;;251.10;236.10;;;;;;;;;;4992893;28;20457;-72
2021/07/25 00:53:23;;;;;;;248.07;233.10;;;;;;;;;;4992988;28;20458;-72
2021/07/25 00:55:50;;;;;;;242.70;228.07;;;;;;;;;;4992615;28;20990;-72
2021/07/25 00:58:17;;;;;;;242.73;227.90;;;;;;;;;;4993046;28;20457;-72
2021/07/25 01:00:46;;;;;;;255.23;239.93;;;;;;;;;;4992617;28;20456;-72
2021/07/25 01:03:17;;;;;;;248.97;234.33;;;;;;;;;;4992784;28;20950;-72
2021/07/25 01:05:46;;;;;;;247.33;232.83;;;;;;;;;;4992766;28;20469;-72
2021/07/25 01:08:18;;;;;;;245.00;230.50;;;;;;;;;;4992881;28;20446;-71
2021/07/25 01:10:46;;;;;;;237.07;222.57;;;;;;;;;;4993222;28;20449;-72
2021/07/25 01:13:14;;;;;;;234.67;220.27;;;;;;;;;;4992869;28;20797;-71
2021/07/25 01:15:41;;;;;;;230.57;216.30;;;;;;;;;;4993094;28;20474;-71
2021/07/25 01:18:10;;;;;;;232.00;218.10;;;;;;;;;;4992495;28;20945;-72
2021/07/25 01:20:38;;;;;;;231.60;217.20;;;;;;;;;;4993049;28;20451;-71
2021/07/25 01:23:05;;;;;;;248.10;233.33;;;;;;;;;;4992785;28;20446;-72
2021/07/25 01:25:34;;;;;;;237.30;222.73;;;;;;;;;;4993211;28;20474;-71
2021/07/25 01:28:04;;;;;;;231.80;217.60;;;;;;;;;;4992975;28;20451;-71
2021/07/25 01:30:32;;;;;;;241.23;226.47;;;;;;;;;;4992319;28;20457;-71
2021/07/25 01:33:00;;;;;;;232.20;218.00;;;;;;;;;;4992849;28;20468;-72
2021/07/25 01:35:28;;;;;;;221.33;207.40;;;;;;;;;;4992084;28;20989;-72
2021/07/25 01:37:57;;;;;;;228.23;214.00;;;;;;;;;;4992521;28;20490;-72
2021/07/25 01:40:26;;;;;;;214.00;200.13;;;;;;;;;;4992260;28;20836;-72
2021/07/25 01:42:53;;;;;;;229.90;215.33;;;;;;;;;;4996067;28;20482;-73
2021/07/25 01:45:20;;;;;;;211.90;198.10;;;;;;;;;;4995453;28;20466;-73
2021/07/25 01:47:48;;;;;;;224.57;210.30;;;;;;;;;;4995400;28;20464;-73
2021/07/25 01:50:15;;;;;;;225.47;211.27;;;;;;;;;;4994787;28;20457;-73
2021/07/25 01:52:42;;;;;;;225.27;210.57;;;;;;;;;;4995167;28;20981;-71
2021/07/25 01:55:11;;;;;;;221.37;207.13;;;;;;;;;;4995707;28;20867;-71
2021/07/25 01:57:38;;;;;;;225.03;210.63;;;;;;;;;;4995346;28;20478;-71
2021/07/25 02:00:06;;;;;;;228.47;212.87;;;;;;;;;;4995820;28;20450;-71
2021/07/25 02:02:34;;;;;;;208.27;194.63;;;;;;;;;;4995501;28;20457;-72
2021/07/25 02:05:01;;;;;;;222.23;207.83;;;;;;;;;;4995377;28;20454;-72
2021/07/25 02:07:28;;;;;;;212.83;199.00;;;;;;;;;;4995465;28;20832;-71
2021/07/25 02:09:55;;;;;;;217.13;203.17;;;;;;;;;;4995110;28;20450;-72
2021/07/25 02:12:23;;;;;;;208.30;194.90;;;;;;;;;;4995456;28;20472;-71
2021/07/25 02:14:50;;;;;;;210.60;196.77;;;;;;;;;;4995171;28;20457;-72
2021/07/25 02:17:17;;;;;;;192.53;179.60;;;;;;;;;;4995178;28;20490;-72
2021/07/25 02:19:45;;;;;;;197.67;184.10;;;;;;;;;;4994746;28;20448;-71
2021/07/25 02:22:12;;;;;;;196.63;182.43;;;;;;;;;;4995137;28;20454;-71
2021/07/25 02:24:40;;;;;;;200.03;186.93;;;;;;;;;;4994977;28;20457;-72
2021/07/25 02:27:08;;;;;;;201.70;188.50;;;;;;;;;;4994900;28;20481;-71
2021/07/25 02:29:36;;;;;;;195.30;182.20;;;;;;;;;;4994928;28;20450;-71
2021/07/25 02:32:03;;;;;;;205.83;192.23;;;;;;;;;;4994641;28;20456;-72
2021/07/25 02:34:30;;;;;;;200.40;187.30;;;;;;;;;;4994877;28;20455;-72
2021/07/25 02:36:59;;;;;;;192.77;179.77;;;;;;;;;;4994963;28;20499;-72
2021/07/25 02:39:26;;;;;;;186.60;173.60;;;;;;;;;;4994643;28;20453;-71
2021/07/25 02:41:53;;;;;;;187.23;174.20;;;;;;;;;;4994686;28;20457;-72
2021/07/25 02:44:20;;;;;;;161.90;150.20;;;;;;;;;;4994681;28;20454;-71
2021/07/25 02:46:49;;;;;;;173.80;161.70;;;;;;;;;;4994504;28;20485;-72
2021/07/25 02:49:16;;;;;;;169.13;156.80;;;;;;;;;;4994691;28;20453;-71
2021/07/25 02:51:43;;;;;;;166.60;154.70;;;;;;;;;;4993921;28;20442;-71
2021/07/25 02:54:10;;;;;;;171.33;159.20;;;;;;;;;;4994514;28;20465;-72
2021/07/25 02:56:38;;;;;;;163.37;151.67;;;;;;;;;;4994554;28;20490;-72
2021/07/25 02:59:05;;;;;;;169.33;157.60;;;;;;;;;;4994684;28;20454;-72
2021/07/25 03:01:33;;;;;;;165.63;153.83;;;;;;;;;;4994151;28;20458;-72
2021/07/25 03:04:01;;;;;;;168.10;156.23;;;;;;;;;;4994269;28;20458;-72
2021/07/25 03:06:28;;;;;;;167.03;154.97;;;;;;;;;;4994466;28;20496;-72
2021/07/25 03:08:55;;;;;;;187.77;175.03;;;;;;;;;;4994669;28;20461;-72
2021/07/25 03:11:22;;;;;;;170.10;157.80;;;;;;;;;;4993706;28;20962;-72
2021/07/25 03:13:49;;;;;;;176.20;163.70;;;;;;;;;;4994515;28;20450;-71
2021/07/25 03:16:17;;;;;;;175.53;163.10;;;;;;;;;;4994095;28;20830;-71
2021/07/25 03:18:44;;;;;;;175.43;162.67;;;;;;;;;;4994267;28;20458;-72
2021/07/25 03:21:12;;;;;;;187.23;174.03;;;;;;;;;;4993662;28;20971;-72
2021/07/25 03:23:39;;;;;;;192.63;179.43;;;;;;;;;;4993904;28;20455;-72
2021/07/25 03:26:06;;;;;;;176.07;163.27;;;;;;;;;;4993980;28;20481;-72
2021/07/25 03:28:34;;;;;;;181.10;168.30;;;;;;;;;;4994606;28;20530;-71
2021/07/25 03:31:01;;;;;;;183.30;169.90;;;;;;;;;;4994712;28;20453;-72
2021/07/25 03:33:28;;;;;;;189.27;176.20;;;;;;;;;;4995078;28;20464;-71
2021/07/25 03:35:55;;;;;;;178.47;165.47;;;;;;;;;;4993579;28;20488;-72
2021/07/25 03:38:25;;;;;;;178.90;165.80;;;;;;;;;;4993860;28;20867;-71
2021/07/25 03:40:52;;;;;;;172.63;159.80;;;;;;;;;;4993784;28;20466;-72
2021/07/25 03:43:19;;;;;;;171.70;158.67;;;;;;;;;;4993893;28;20812;-71
2021/07/25 03:45:47;;;;;;;165.43;152.93;;;;;;;;;;4993477;28;20478;-71
2021/07/25 03:48:15;;;;;;;169.97;157.53;;;;;;;;;;4993712;28;20969;-72
2021/07/25 03:50:42;;;;;;;164.00;151.57;;;;;;;;;;4993428;28;20480;-71
2021/07/25 03:53:10;;;;;;;165.67;153.40;;;;;;;;;;4993719;28;20447;-72
2021/07/25 03:55:39;;;;;;;159.40;147.40;;;;;;;;;;4993867;28;20861;-72
2021/07/25 03:58:06;;;;;;;166.37;153.83;;;;;;;;;;4993373;28;20497;-71
2021/07/25 04:00:33;;;;;;;168.40;155.90;;;;;;;;;;4993369;28;20457;-72
2021/07/25 04:03:00;;;;;;;162.70;150.20;;;;;;;;;;4992955;28;20457;-71
2021/07/25 04:05:28;;;;;;;165.37;152.87;;;;;;;;;;4992961;28;20492;-72
2021/07/25 04:07:55;;;;;;;155.50;143.60;;;;;;;;;;4993224;28;20454;-71
2021/07/25 04:10:23;;;;;;;154.33;142.57;;;;;;;;;;4992836;28;20447;-72
2021/07/25 04:12:51;;;;;;;155.10;143.20;;;;;;;;;;4993142;28;20453;-72
2021/07/25 04:15:20;;;;;;;146.07;134.80;;;;;;;;;;4992231;28;20568;-71
2021/07/25 04:17:47;;;;;;;143.30;132.07;;;;;;;;;;4992819;28;21028;-72
2021/07/25 04:20:14;;;;;;;156.73;145.23;;;;;;;;;;4992836;28;20453;-72
2021/07/25 04:22:41;;;;;;;148.67;137.47;;;;;;;;;;4992971;28;20461;-72
2021/07/25 04:25:09;;;;;;;148.20;136.83;;;;;;;;;;4992373;28;20454;-72
2021/07/25 04:27:36;;;;;;;148.17;136.87;;;;;;;;;;4992817;28;20501;-71
2021/07/25 04:30:06;;;;;;;150.60;139.20;;;;;;;;;;4992432;28;20461;-72
2021/07/25 04:32:33;;;;;;;143.87;132.60;;;;;;;;;;4992437;28;20457;-72
2021/07/25 04:35:00;;;;;;;144.53;133.57;;;;;;;;;;4992651;28;20457;-72
2021/07/25 04:37:29;;;;;;;142.63;131.77;;;;;;;;;;4992574;28;20581;-72
2021/07/25 04:39:56;;;;;;;145.60;134.70;;;;;;;;;;4992860;28;20443;-71
2021/07/25 04:42:24;;;;;;;144.30;132.90;;;;;;;;;;4991869;28;20450;-72
2021/07/25 04:45:03;;;;;;;140.40;129.30;;;;;;;;;;4992617;28;20466;-72
2021/07/25 04:47:37;;;;;;;145.50;134.33;;;;;;;;;;4992670;28;20445;-71
2021/07/25 04:50:05;;;;;;;152.77;141.10;;;;;;;;;;4992803;28;20449;-72
2021/07/25 04:52:37;;;;;;;153.90;142.30;;;;;;;;;;4991955;28;20454;-72
2021/07/25 04:55:06;;;;;;;147.87;136.07;;;;;;;;;;4992469;28;20458;-72
2021/07/25 04:57:35;;;;;;;151.07;139.30;;;;;;;;;;4992667;28;20496;-74
2021/07/25 05:00:03;;;;;;;160.00;147.47;;;;;;;;;;4992555;28;20446;-71
2021/07/25 05:02:31;;;;;;;161.00;148.70;;;;;;;;;;4992178;28;20457;-71
2021/07/25 05:05:01;;;;;;;165.47;152.93;;;;;;;;;;4992208;28;20484;-72
2021/07/25 05:07:28;;;;;;;162.07;149.70;;;;;;;;;;4992048;28;20442;-71
2021/07/25 05:09:55;;;;;;;175.47;162.30;;;;;;;;;;4992426;28;21192;-72
2021/07/25 05:12:28;;;;;;;166.57;153.77;;;;;;;;;;4992436;28;20457;-72
2021/07/25 05:14:59;;;;;;;162.50;149.93;;;;;;;;;;4993175;28;20434;-72
2021/07/25 05:17:30;;;;;;;171.87;158.30;;;;;;;;;;4996255;28;20471;-72
2021/07/25 05:19:58;;;;;;;184.83;170.80;;;;;;;;;;4995924;28;20815;-72
2021/07/25 05:22:30;;;;;;;183.00;168.63;;;;;;;;;;4996275;28;20468;-72
2021/07/25 05:24:59;;;;;;;200.63;186.33;;;;;;;;;;4996347;28;20460;-72
2021/07/25 05:27:26;;;;;;;190.23;175.53;;;;;;;;;;4995617;28;20450;-72
2021/07/25 05:29:53;;;;;;;185.77;171.57;;;;;;;;;;4995886;28;20818;-72
2021/07/25 05:32:21;;;;;;;206.37;191.60;;;;;;;;;;4995636;28;20454;-72
2021/07/25 05:34:48;;;;;;;220.70;204.87;;;;;;;;;;4996257;28;20450;-72
2021/07/25 05:37:15;;;;;;;219.50;203.43;;;;;;;;;;4986805;23;20502;-69
2021/07/25 05:39:43;;;;;;;213.00;197.50;;;;;;;;;;4966208;28;20459;-68
2021/07/25 05:42:10;;;;;;;220.10;204.40;;;;;;;;;;4967304;28;20458;-68
2021/07/25 05:44:37;;;;;;;215.77;200.07;;;;;;;;;;4976036;28;20447;-67
2021/07/25 05:47:05;;;;;;;204.47;189.20;;;;;;;;;;4987064;28;20522;-68
2021/07/25 05:49:32;;;;;;;228.07;211.93;;;;;;;;;;4995261;28;20484;-67
2021/07/25 05:51:59;;;;;;;253.27;236.77;;;;;;;;;;4994856;28;20461;-68
2021/07/25 05:54:26;;;;;;;240.37;223.47;;;;;;;;;;4995012;28;20934;-68
2021/07/25 05:56:54;;;;;;;229.07;213.07;;;;;;;;;;4995125;28;20474;-68
2021/07/25 05:59:21;;;;;;;233.27;217.07;;;;;;;;;;4994549;28;20841;-66
2021/07/25 06:01:49;;;;;;;245.60;228.40;;;;;;;;;;4994860;28;20451;-68
2021/07/25 06:04:16;;;;;;;246.67;229.73;;;;;;;;;;4994510;28;20458;-68
2021/07/25 06:06:43;;;;;;;268.40;250.60;;;;;;;;;;4994762;28;20474;-68
2021/07/25 06:09:10;;;;;;;259.03;241.93;;;;;;;;;;4994899;28;20457;-68
2021/07/25 06:11:38;;;;;;;257.80;240.83;;;;;;;;;;4994414;28;20457;-68
2021/07/25 06:14:07;;;;;;;264.87;247.83;;;;;;;;;;4994527;28;20509;-68
2021/07/25 06:16:34;;;;;;;275.80;258.00;;;;;;;;;;4994237;28;20466;-68
2021/07/25 06:19:01;;;;;;;274.13;256.93;;;;;;;;;;4994719;28;20485;-68
2021/07/25 06:21:28;;;;;;;284.30;266.43;;;;;;;;;;4994175;28;20801;-68
2021/07/25 06:23:56;;;;;;;288.73;271.13;;;;;;;;;;4994599;28;20454;-68
2021/07/25 06:26:23;;;;;;;294.67;276.97;;;;;;;;;;4993628;28;20974;-68
2021/07/25 06:28:51;;;;;;;316.30;297.30;;;;;;;;;;4994239;28;20476;-68
2021/07/25 06:31:19;;;;;;;319.40;300.77;;;;;;;;;;4994439;28;20476;-68
2021/07/25 06:33:46;;;;;;;339.40;320.53;;;;;;;;;;4994089;28;20454;-66
2021/07/25 06:36:14;;;;;;;317.07;299.37;;;;;;;;;;5001865;28;20500;-68
2021/07/25 06:38:41;;;;;;;317.80;300.27;;;;;;;;;;4993857;28;20486;-68
2021/07/25 06:41:08;;;;;;;315.87;298.47;;;;;;;;;;4993637;28;20748;-68
2021/07/25 06:43:36;;;;;;;331.13;313.13;;;;;;;;;;4994304;28;20446;-68
2021/07/25 06:46:03;;;;;;;306.17;289.67;;;;;;;;;;4993904;28;20493;-68
2021/07/25 06:48:32;;;;;;;313.50;296.90;;;;;;;;;;4994181;28;20453;-68
2021/07/25 06:51:00;;;;;;;331.33;314.13;;;;;;;;;;4993547;28;20934;-67
2021/07/25 06:53:28;;;;;;;330.07;313.17;;;;;;;;;;4993836;28;20957;-66
2021/07/25 06:55:56;;;;;;;322.57;305.77;;;;;;;;;;4993824;28;20478;-67
2021/07/25 06:58:23;;;;;;;301.07;285.23;;;;;;;;;;4993568;28;20485;-67
2021/07/25 07:00:50;;;;;;;284.37;268.70;;;;;;;;;;4993576;28;20824;-68
2021/07/25 07:03:19;;;;;;;270.90;255.90;;;;;;;;;;4993926;28;20450;-67
2021/07/25 07:05:48;;;;;;;295.63;279.93;;;;;;;;;;4993741;28;20454;-68
2021/07/25 07:08:15;;;;;;;280.57;265.20;;;;;;;;;;4993316;28;20454;-68
2021/07/25 07:10:43;;;;;;;249.67;235.57;;;;;;;;;;4993770;28;20451;-68
2021/07/25 07:13:11;;;;;;;230.47;217.07;;;;;;;;;;4993083;28;20946;-68
2021/07/25 07:15:39;;;;;;;248.00;234.00;;;;;;;;;;4993617;28;20457;-68
2021/07/25 07:18:07;;;;;;;255.03;241.03;;;;;;;;;;4993371;28;20509;-68
2021/07/25 07:20:34;;;;;;;236.50;223.30;;;;;;;;;;4993179;28;20529;-68
2021/07/25 07:23:03;;;;;;;225.70;213.60;;;;;;;;;;4992974;28;20457;-68
2021/07/25 07:25:32;;;;;;;215.00;203.20;;;;;;;;;;4993335;28;20460;-68
2021/07/25 07:27:59;;;;;;;214.40;203.10;;;;;;;;;;4993299;28;20466;-67
2021/07/25 07:30:26;;;;;;;200.50;189.80;;;;;;;;;;4993036;28;20459;-67
2021/07/25 07:32:53;;;;;;;188.57;178.97;;;;;;;;;;4993357;28;20454;-68
2021/07/25 07:35:23;;;;;;;164.57;156.27;;;;;;;;;;4992853;28;20826;-67
2021/07/25 07:37:50;;;;;;;163.43;155.10;;;;;;;;;;4992249;28;20486;-67
2021/07/25 07:40:19;;;;;;;132.07;125.37;;;;;;;;;;4992254;28;20967;-68
2021/07/25 07:42:46;;;;;;;152.67;144.80;;;;;;;;;;4992873;28;20461;-68
2021/07/25 07:45:15;;;;;;;126.00;119.40;;;;;;;;;;4993251;28;20451;-67
2021/07/25 07:47:42;;;;;;;117.53;111.33;;;;;;;;;;4992765;28;20558;-67
2021/07/25 07:50:09;;;;;;;106.80;101.10;;;;;;;;;;4992710;28;20449;-68
2021/07/25 07:52:36;;;;;;;118.07;111.87;;;;;;;;;;4993405;28;20454;-67
2021/07/25 07:55:04;;;;;;;119.00;113.00;;;;;;;;;;5001698;28;20976;-68
2021/07/25 07:57:32;;;;;;;160.67;152.77;;;;;;;;;;4992541;28;20850;-68
2021/07/25 07:59:59;;;;;;;142.83;135.73;;;;;;;;;;4992949;28;20490;-67
2021/07/25 08:02:26;;;;;;;141.30;134.30;;;;;;;;;;4992456;28;20819;-68
2021/07/25 08:04:53;;;;;;;136.77;129.87;;;;;;;;;;4992346;28;20454;-68
2021/07/25 08:07:20;;;;;;;149.40;141.70;;;;;;;;;;4992517;28;20496;-65
2021/07/25 08:09:48;;;;;;;167.13;158.53;;;;;;;;;;4992233;28;20438;-68
2021/07/25 08:12:15;;;;;;;176.57;167.47;;;;;;;;;;4992616;28;20454;-66
2021/07/25 08:14:43;;;;;;;144.80;137.60;;;;;;;;;;4992565;28;20946;-67
2021/07/25 08:17:10;;;;;;;134.00;127.30;;;;;;;;;;4992403;28;20470;-68
2021/07/25 08:19:37;;;;;;;103.90;98.57;;;;;;;;;;4992566;28;20486;-68
2021/07/25 08:22:07;;;;;;;88.73;84.00;;;;;;;;;;4992038;28;20455;-68
2021/07/25 08:24:35;;;;;;;70.37;66.27;;;;;;;;;;4992455;28;20461;-68
2021/07/25 08:27:02;;;;;;;51.10;47.90;;;;;;;;;;4992360;28;20470;-68
2021/07/25 08:29:29;;;;;;;54.00;50.40;;;;;;;;;;4992031;28;20461;-67
2021/07/25 08:31:59;;;;;;;48.63;45.63;;;;;;;;;;4992362;28;20454;-68
2021/07/25 08:34:26;;;;;;;49.93;46.73;;;;;;;;;;4992818;28;20541;-68
2021/07/25 08:36:53;;;;;;;51.03;47.83;;;;;;;;;;4992084;28;20497;-66
2021/07/25 08:39:20;;;;;;;53.37;50.17;;;;;;;;;;4991980;28;20486;-68
2021/07/25 08:42:09;;;;;;;49.40;46.20;;;;;;;;;;4991922;28;20458;-68
2021/07/25 08:44:41;;;;;;;51.10;47.70;;;;;;;;;;4987505;28;20469;-67
2021/07/25 08:47:14;;;;;;;49.50;46.40;;;;;;;;;;4991725;28;20467;-68
2021/07/25 08:49:43;;;;;;;46.70;43.70;;;;;;;;;;4992428;28;20443;-68
2021/07/25 08:52:16;;;;;;;42.67;40.07;;;;;;;;;;4996152;28;20825;-67
2021/07/25 08:54:44;;;;;;;39.80;37.20;;;;;;;;;;4995848;28;20469;-67
2021/07/25 08:57:13;;;;;;;36.73;34.57;;;;;;;;;;4996132;28;20472;-67
2021/07/25 08:59:43;;;;;;;38.17;35.67;;;;;;;;;;4996078;28;20485;-68
2021/07/25 09:02:17;;;;;;;36.87;34.67;;;;;;;;;;4996007;28;20448;-67
2021/07/25 09:04:45;;;;;;;38.10;35.80;;;;;;;;;;4995688;28;20949;-68
2021/07/25 09:07:12;;;;;;;35.30;33.20;;;;;;;;;;4995805;28;20478;-67
2021/07/25 09:09:40;;;;;;;29.70;28.00;;;;;;;;;;4995407;28;20934;-68
2021/07/25 09:12:08;;;;;;;29.90;28.20;;;;;;;;;;4995683;28;20454;-68
2021/07/25 09:14:35;;;;;;;29.03;27.23;;;;;;;;;;4995820;28;20446;-67
2021/07/25 09:17:02;;;;;;;29.63;27.33;;;;;;;;;;4995317;28;20852;-66
2021/07/25 09:19:30;;;;;;;30.37;28.50;;;;;;;;;;4995281;28;20497;-67
2021/07/25 09:21:57;;;;;;;31.80;29.90;;;;;;;;;;4995623;28;20797;-68
2021/07/25 09:24:26;;;;;;;28.23;26.50;;;;;;;;;;4995493;28;20457;-68
2021/07/25 09:26:54;;;;;;;28.80;27.10;;;;;;;;;;4995664;28;20568;-68
2021/07/25 09:29:22;;;;;;;29.60;27.60;;;;;;;;;;4996927;28;20814;-65
2021/07/25 09:31:49;;;;;;;28.83;27.13;;;;;;;;;;5001173;28;20455;-67
2021/07/25 09:34:31;;;;;;;28.77;27.07;;;;;;;;;;4994983;28;20458;-68
2021/07/25 09:37:09;;;;;;;29.20;27.43;;;;;;;;;;4994788;28;20478;-68
2021/07/25 09:39:39;;;;;;;29.57;27.70;;;;;;;;;;4995425;28;20482;-67
2021/07/25 09:42:08;;;;;;;29.87;27.87;;;;;;;;;;4995201;28;20477;-68
2021/07/25 09:44:48;;;;;;;29.10;27.30;;;;;;;;;;4994982;28;20453;-66
2021/07/25 09:47:25;;;;;;;29.13;27.50;;;;;;;;;;4994733;28;20819;-67
2021/07/25 09:49:52;;;;;;;28.23;26.63;;;;;;;;;;4995096;28;20442;-68
2021/07/25 09:52:28;;;;;;;27.87;26.27;;;;;;;;;;4994608;28;20450;-68
2021/07/25 09:54:56;;;;;;;27.77;25.97;;;;;;;;;;4994829;28;20496;-67
2021/07/25 09:57:24;;;;;;;27.23;25.67;;;;;;;;;;4994621;28;20470;-68
2021/07/25 09:59:52;;;;;;;27.80;26.17;;;;;;;;;;4994939;28;20488;-67
2021/07/25 10:02:33;;;;;;;28.97;27.07;;;;;;;;;;4993814;28;20458;-66
2021/07/25 10:05:06;;;;;;;28.67;26.93;;;;;;;;;;4994818;28;20815;-67
2021/07/25 10:07:35;;;;;;;28.17;26.57;;;;;;;;;;4994413;28;20474;-67
2021/07/25 10:10:02;;;;;;;27.20;25.60;;;;;;;;;;4994367;28;20942;-68
2021/07/25 10:12:29;;;;;;;28.27;26.40;;;;;;;;;;4994707;28;20454;-68
2021/07/25 10:14:59;;;;;;;25.50;24.10;;;;;;;;;;4994744;28;20528;-68
2021/07/25 10:17:27;;;;;;;26.53;25.07;;;;;;;;;;4994449;28;21059;-68
2021/07/25 10:19:55;;;;;;;26.63;25.13;;;;;;;;;;4994305;28;20482;-68
2021/07/25 10:22:23;;;;;;;25.70;24.30;;;;;;;;;;4994022;28;20456;-68
2021/07/25 10:24:54;;;;;;;27.47;25.87;;;;;;;;;;4994472;28;20450;-68
2021/07/25 10:27:22;;;;;;;27.77;26.07;;;;;;;;;;4993950;28;20903;-68
2021/07/25 10:29:51;;;;;;;28.33;26.63;;;;;;;;;;4994529;28;20454;-68
2021/07/25 10:32:19;;;;;;;26.93;25.33;;;;;;;;;;4993843;28;20953;-68
2021/07/25 10:34:47;;;;;;;27.10;25.60;;;;;;;;;;4994301;28;20508;-68
2021/07/25 10:37:15;;;;;;;27.07;25.57;;;;;;;;;;4993852;28;20489;-68
2021/07/25 10:39:44;;;;;;;26.30;24.90;;;;;;;;;;4993990;28;20497;-68
2021/07/25 10:42:13;;;;;;;27.37;25.70;;;;;;;;;;4993903;28;20454;-68
2021/07/25 10:44:43;;;;;;;27.97;26.37;;;;;;;;;;4994030;28;20473;-67
2021/07/25 10:47:30;;;;;;;26.53;25.10;;;;;;;;;;4993644;28;20970;-66
2021/07/25 10:50:01;;;;;;;28.97;27.27;;;;;;;;;;4993993;28;20477;-68
2021/07/25 10:52:29;;;;;;;26.93;25.33;;;;;;;;;;4993648;28;20453;-66
2021/07/25 10:54:56;;;;;;;26.73;25.20;;;;;;;;;;4993675;28;20468;-68
2021/07/25 10:57:24;;;;;;;27.70;26.10;;;;;;;;;;4993450;28;20963;-68
2021/07/25 10:59:52;;;;;;;28.10;26.60;;;;;;;;;;4993813;28;20489;-68
2021/07/25 11:02:38;;;;;;;27.50;25.80;;;;;;;;;;4993720;28;20832;-68
2021/07/25 11:05:06;;;;;;;25.53;24.03;;;;;;;;;;4993388;28;20450;-68
2021/07/25 11:07:33;;;;;;;26.40;24.90;;;;;;;;;;4993447;28;20469;-67
2021/07/25 11:10:01;;;;;;;26.20;24.63;;;;;;;;;;4993575;28;20537;-68
2021/07/25 11:12:50;;;;;;;26.83;25.30;;;;;;;;;;4994536;28;20450;-68
2021/07/25 11:15:31;;;;;;;25.80;24.40;;;;;;;;;;4992942;28;20577;-68
2021/07/25 11:17:58;;;;;;;27.57;25.87;;;;;;;;;;5008233;28;20478;-67
2021/07/25 11:20:40;;;;;;;25.57;24.17;;;;;;;;;;4993040;28;20498;-68
2021/07/25 11:23:07;;;;;;;27.77;26.07;;;;;;;;;;4993324;28;20633;-67
2021/07/25 11:25:36;;;;;;;27.23;25.73;;;;;;;;;;4993099;28;20800;-68
2021/07/25 11:28:05;;;;;;;26.73;25.20;;;;;;;;;;4993304;28;20481;-66
2021/07/25 11:30:51;;;;;;;25.90;24.40;;;;;;;;;;4993094;28;20453;-68
2021/07/25 11:33:43;;;;;;;24.77;23.37;;;;;;;;;;4993080;28;20781;-68
2021/07/25 11:36:10;;;;;;;26.17;24.67;;;;;;;;;;4978265;28;20528;-68
2021/07/25 11:38:38;;;;;;;28.07;26.30;;;;;;;;;;4995376;23;20497;-73
2021/07/25 11:41:06;;;;;;;26.10;24.50;;;;;;;;;;4973670;28;20868;-72
2021/07/25 11:43:48;;;;;;;26.93;25.50;;;;;;;;;;4973674;28;20465;-72
2021/07/25 11:46:23;;;;;;;27.10;25.40;;;;;;;;;;4973761;28;20443;-73
2021/07/25 11:49:01;;;;;;;26.63;25.13;;;;;;;;;;4992271;28;20472;-73
2021/07/25 11:51:29;;;;;;;25.93;24.53;;;;;;;;;;4992852;28;20508;-74
2021/07/25 11:53:56;;;;;;;26.30;24.90;;;;;;;;;;4993803;28;20470;-74
2021/07/25 11:56:23;;;;;;;26.00;24.50;;;;;;;;;;4993253;28;20450;-73
2021/07/25 11:58:59;;;;;;;25.33;23.97;;;;;;;;;;4992903;28;20474;-73
2021/07/25 12:01:28;;;;;;;25.07;23.67;;;;;;;;;;4992764;28;20470;-74
2021/07/25 12:03:55;;;;;;;25.50;23.67;;;;;;;;;;4992698;28;20456;-73
2021/07/25 12:06:22;;;;;;;24.60;23.20;;;;;;;;;;4992597;28;20829;-73
2021/07/25 12:09:05;;;;;;;25.03;23.63;;;;;;;;;;4992877;28;20470;-73
2021/07/25 12:11:33;;;;;;;24.70;23.40;;;;;;;;;;4992498;28;20500;-73
2021/07/25 12:14:00;;;;;;;23.57;22.27;;;;;;;;;;4992805;28;20454;-73
2021/07/25 12:16:44;;;;;;;24.77;23.37;;;;;;;;;;4992797;28;20456;-73
2021/07/25 12:19:15;;;;;;;23.93;22.63;;;;;;;;;;4992966;28;20442;-74
2021/07/25 12:21:42;;;;;;;24.17;22.87;;;;;;;;;;4992297;28;20451;-73
2021/07/25 12:24:24;;;;;;;24.13;22.77;;;;;;;;;;4992472;28;20957;-73
2021/07/25 12:26:51;;;;;;;26.03;24.60;;;;;;;;;;4990365;28;20634;-73
2021/07/25 12:29:37;;;;;;;25.97;24.53;;;;;;;;;;4993696;28;20438;-73
2021/07/25 12:32:22;;;;;;;26.20;24.80;;;;;;;;;;4994023;28;20454;-74
2021/07/25 12:34:49;;;;;;;27.00;25.40;;;;;;;;;;4994575;28;20453;-73
2021/07/25 12:37:31;;;;;;;25.87;24.33;;;;;;;;;;4994032;28;21012;-73
2021/07/25 12:40:05;;;;;;;24.37;23.07;;;;;;;;;;4992480;28;20490;-73
2021/07/25 12:42:43;;;;;;;25.97;24.47;;;;;;;;;;4994421;28;20451;-73
2021/07/25 12:45:23;;;;;;;26.03;24.50;;;;;;;;;;4994650;28;20454;-73
2021/07/25 12:48:08;;;;;;;25.57;24.17;;;;;;;;;;4993860;28;20985;-73
2021/07/25 12:51:00;;;;;;;26.27;24.80;;;;;;;;;;4994083;28;20541;-74
2021/07/25 12:53:31;;;;;;;26.10;24.70;;;;;;;;;;4975570;28;20494;-74
2021/07/25 12:55:59;;;;;;;26.40;24.70;;;;;;;;;;4994109;28;20446;-74
2021/07/25 12:58:28;;;;;;;25.60;24.20;;;;;;;;;;4994441;28;20549;-73
2021/07/25 13:01:17;;;;;;;25.53;24.03;;;;;;;;;;4994202;28;20911;-74
2021/07/25 13:03:45;;;;;;;25.37;24.07;;;;;;;;;;4993439;28;20458;-73
2021/07/25 13:06:13;;;;;;;25.67;24.30;;;;;;;;;;4994763;28;20526;-73
2021/07/25 13:08:40;;;;;;;26.13;24.73;;;;;;;;;;4994139;28;20470;-73
2021/07/25 13:11:07;;;;;;;26.17;24.77;;;;;;;;;;4994420;28;20450;-73
2021/07/25 13:13:34;;;;;;;25.10;23.80;;;;;;;;;;4994090;28;20453;-73
2021/07/25 13:16:02;;;;;;;25.33;23.93;;;;;;;;;;4994551;28;20541;-74
2021/07/25 13:18:29;;;;;;;25.87;24.47;;;;;;;;;;4994003;28;20484;-73
2021/07/25 13:20:57;;;;;;;25.70;24.23;;;;;;;;;;4993891;28;20494;-74
2021/07/25 13:23:24;;;;;;;26.50;24.90;;;;;;;;;;4993798;28;20946;-73
2021/07/25 13:25:51;;;;;;;25.00;23.70;;;;;;;;;;4994184;28;20465;-73
2021/07/25 13:28:18;;;;;;;26.67;25.17;;;;;;;;;;4994084;28;20481;-73
2021/07/25 13:30:45;;;;;;;25.50;24.10;;;;;;;;;;4993951;28;20454;-72
2021/07/25 13:33:13;;;;;;;24.90;23.60;;;;;;;;;;4994060;28;20457;-73
2021/07/25 13:35:40;;;;;;;25.40;23.90;;;;;;;;;;4994377;28;20458;-74
2021/07/25 13:38:08;;;;;;;24.97;23.67;;;;;;;;;;4997309;28;20485;-73
2021/07/25 13:40:35;;;;;;;25.17;23.80;;;;;;;;;;4997796;28;20501;-73
2021/07/25 13:43:09;;;;;;;25.73;24.20;;;;;;;;;;4997465;28;20545;-73
2021/07/25 13:45:36;;;;;;;25.10;23.70;;;;;;;;;;4997793;28;20463;-73
2021/07/25 13:48:04;;;;;;;25.27;23.80;;;;;;;;;;4997443;28;20472;-73
2021/07/25 13:50:32;;;;;;;25.33;23.80;;;;;;;;;;4997798;28;20454;-73
2021/07/25 13:52:59;;;;;;;25.30;23.90;;;;;;;;;;4997130;28;20953;-73
2021/07/25 13:55:28;;;;;;;25.63;24.23;;;;;;;;;;4996710;28;20505;-74
2021/07/25 13:57:55;;;;;;;26.30;24.90;;;;;;;;;;4996637;28;20480;-73
2021/07/25 14:00:22;;;;;;;24.90;23.40;;;;;;;;;;4996816;28;20482;-73
2021/07/25 14:02:49;;;;;;;25.30;23.90;;;;;;;;;;4996346;28;20818;-73
2021/07/25 14:05:16;;;;;;;25.37;23.97;;;;;;;;;;4997136;28;20442;-73
2021/07/25 14:07:43;;;;;;;26.13;24.83;;;;;;;;;;4997467;28;20466;-73
2021/07/25 14:10:11;;;;;;;24.70;23.33;;;;;;;;;;4997269;28;20446;-74
2021/07/25 14:12:39;;;;;;;25.40;24.10;;;;;;;;;;4997117;28;20454;-73